sensor_id;sensor_type;location;lat;lon;timestamp;pressure;altitude;pressure_sealevel;temperature;humidity
50166;BME280;36071;48.140;11.516;2023-05-16T00:03:57;95150.0;;;10.9;88.3
50166;BME280;36071;48.140;11.516;2023-05-16T00:08:58;95140.0;;;10.9;88.8
50166;BME280;36071;48.140;11.516;2023-05-16T00:18:57;95130.0;;;10.8;89.6
50166;BME280;36071;48.140;11.516;2023-05-16T00:23:57;95140.0;;;10.8;89.6
50166;BME280;36071;48.140;11.516;2023-05-16T00:28:57;95140.0;;;10.8;90.0
50166;BME280;36071;48.140;11.516;2023-05-16T00:33:57;95130.0;;;10.8;89.5
50166;BME280;36071;48.140;11.516;2023-05-16T00:38:57;95120.0;;;10.8;90.1
50166;BME280;36071;48.140;11.516;2023-05-16T00:43:57;95120.0;;;10.7;90.4
50166;BME280;36071;48.140;11.516;2023-05-16T00:48:57;95120.0;;;10.7;91.0
50166;BME280;36071;48.140;11.516;2023-05-16T00:53:57;95120.0;;;10.6;91.3
50166;BME280;36071;48.140;11.516;2023-05-16T00:58:57;95120.0;;;10.6;91.5
50166;BME280;36071;48.140;11.516;2023-05-16T01:03:57;95130.0;;;10.7;91.3
50166;BME280;36071;48.140;11.516;2023-05-16T01:08:57;95130.0;;;10.7;90.9
50166;BME280;36071;48.140;11.516;2023-05-16T01:13:59;95130.0;;;10.6;92.0
50166;BME280;36071;48.140;11.516;2023-05-16T01:19:00;95120.0;;;10.6;91.9
50166;BME280;36071;48.140;11.516;2023-05-16T01:23:59;95120.0;;;10.7;91.3
50166;BME280;36071;48.140;11.516;2023-05-16T01:28:59;95120.0;;;10.6;91.0
50166;BME280;36071;48.140;11.516;2023-05-16T01:33:57;95110.0;;;10.6;91.2
50166;BME280;36071;48.140;11.516;2023-05-16T01:39:00;95110.0;;;10.6;91.9
50166;BME280;36071;48.140;11.516;2023-05-16T01:43:58;95100.0;;;10.5;92.2
50166;BME280;36071;48.140;11.516;2023-05-16T01:49:02;95100.0;;;10.5;92.4
50166;BME280;36071;48.140;11.516;2023-05-16T01:53:58;95090.0;;;10.6;92.1
50166;BME280;36071;48.140;11.516;2023-05-16T01:58:59;95100.0;;;10.6;91.4
50166;BME280;36071;48.140;11.516;2023-05-16T02:03:57;95090.0;;;10.5;91.8
50166;BME280;36071;48.140;11.516;2023-05-16T02:08:57;95090.0;;;10.5;91.7
50166;BME280;36071;48.140;11.516;2023-05-16T02:13:57;95100.0;;;10.4;92.4
50166;BME280;36071;48.140;11.516;2023-05-16T02:18:57;95100.0;;;10.4;92.5
50166;BME280;36071;48.140;11.516;2023-05-16T02:23:57;95110.0;;;10.4;92.1
50166;BME280;36071;48.140;11.516;2023-05-16T02:28:57;95110.0;;;10.4;92.4
50166;BME280;36071;48.140;11.516;2023-05-16T02:33:58;95110.0;;;10.4;91.9
50166;BME280;36071;48.140;11.516;2023-05-16T02:38:57;95110.0;;;10.4;92.4
50166;BME280;36071;48.140;11.516;2023-05-16T02:43:57;95110.0;;;10.4;92.0
50166;BME280;36071;48.140;11.516;2023-05-16T02:48:58;95100.0;;;10.3;93.5
50166;BME280;36071;48.140;11.516;2023-05-16T02:53:57;95110.0;;;10.3;92.5
50166;BME280;36071;48.140;11.516;2023-05-16T02:58:58;95100.0;;;10.3;92.5
50166;BME280;36071;48.140;11.516;2023-05-16T03:03:57;95100.0;;;10.3;92.9
50166;BME280;36071;48.140;11.516;2023-05-16T03:08:57;95090.0;;;10.3;92.4
50166;BME280;36071;48.140;11.516;2023-05-16T03:14:12;95100.0;;;10.3;92.9
50166;BME280;36071;48.140;11.516;2023-05-16T03:18:57;95100.0;;;10.3;92.0
50166;BME280;36071;48.140;11.516;2023-05-16T03:23:57;95100.0;;;10.3;92.3
50166;BME280;36071;48.140;11.516;2023-05-16T03:28:57;95100.0;;;10.2;92.5
50166;BME280;36071;48.140;11.516;2023-05-16T03:33:57;95100.0;;;10.3;93.0
50166;BME280;36071;48.140;11.516;2023-05-16T03:38:57;95110.0;;;10.3;92.6
50166;BME280;36071;48.140;11.516;2023-05-16T03:43:57;95100.0;;;10.3;92.3
50166;BME280;36071;48.140;11.516;2023-05-16T03:48:57;95090.0;;;10.2;92.2
50166;BME280;36071;48.140;11.516;2023-05-16T03:53:57;95090.0;;;10.2;93.0
50166;BME280;36071;48.140;11.516;2023-05-16T03:58:57;95090.0;;;10.1;93.1
50166;BME280;36071;48.140;11.516;2023-05-16T04:03:58;95100.0;;;10.0;93.0
50166;BME280;36071;48.140;11.516;2023-05-16T04:08:57;95090.0;;;10.1;93.7
50166;BME280;36071;48.140;11.516;2023-05-16T04:13:57;95090.0;;;10.1;93.1
50166;BME280;36071;48.140;11.516;2023-05-16T04:18:57;95090.0;;;10.1;93.2
50166;BME280;36071;48.140;11.516;2023-05-16T04:23:57;95100.0;;;10.1;93.0
50166;BME280;36071;48.140;11.516;2023-05-16T04:28:57;95110.0;;;10.1;93.2
50166;BME280;36071;48.140;11.516;2023-05-16T04:33:57;95110.0;;;10.1;93.1
50166;BME280;36071;48.140;11.516;2023-05-16T04:38:57;95110.0;;;10.2;92.5
50166;BME280;36071;48.140;11.516;2023-05-16T04:43:57;95100.0;;;10.2;91.9
50166;BME280;36071;48.140;11.516;2023-05-16T04:48:57;95110.0;;;10.2;92.1
50166;BME280;36071;48.140;11.516;2023-05-16T04:53:57;95100.0;;;10.2;92.2
50166;BME280;36071;48.140;11.516;2023-05-16T04:58:57;95100.0;;;10.2;92.3
50166;BME280;36071;48.140;11.516;2023-05-16T05:03:57;95100.0;;;10.3;92.0
50166;BME280;36071;48.140;11.516;2023-05-16T05:13:57;95100.0;;;10.4;91.9
50166;BME280;36071;48.140;11.516;2023-05-16T05:18:57;95110.0;;;10.4;91.3
50166;BME280;36071;48.140;11.516;2023-05-16T05:23:57;95110.0;;;10.5;91.4
50166;BME280;36071;48.140;11.516;2023-05-16T05:28:57;95110.0;;;10.4;92.2
50166;BME280;36071;48.140;11.516;2023-05-16T05:33:57;95110.0;;;10.4;91.0
50166;BME280;36071;48.140;11.516;2023-05-16T05:38:59;95110.0;;;10.4;90.1
50166;BME280;36071;48.140;11.516;2023-05-16T05:43:57;95110.0;;;10.4;91.1
50166;BME280;36071;48.140;11.516;2023-05-16T05:48:58;95090.0;;;10.4;91.9
50166;BME280;36071;48.140;11.516;2023-05-16T05:53:57;95100.0;;;10.3;90.6
50166;BME280;36071;48.140;11.516;2023-05-16T05:58:57;95090.0;;;10.3;90.8
50166;BME280;36071;48.140;11.516;2023-05-16T06:03:57;95100.0;;;10.3;90.6
50166;BME280;36071;48.140;11.516;2023-05-16T06:08:57;95100.0;;;10.3;91.5
50166;BME280;36071;48.140;11.516;2023-05-16T06:13:57;95100.0;;;10.4;91.3
50166;BME280;36071;48.140;11.516;2023-05-16T06:18:57;95090.0;;;10.4;91.4
50166;BME280;36071;48.140;11.516;2023-05-16T06:23:57;95100.0;;;10.5;91.5
50166;BME280;36071;48.140;11.516;2023-05-16T06:28:57;95100.0;;;10.5;91.1
50166;BME280;36071;48.140;11.516;2023-05-16T06:33:57;95100.0;;;10.5;90.6
50166;BME280;36071;48.140;11.516;2023-05-16T06:38:57;95110.0;;;10.7;90.7
50166;BME280;36071;48.140;11.516;2023-05-16T06:43:57;95110.0;;;10.8;90.2
50166;BME280;36071;48.140;11.516;2023-05-16T06:48:57;95110.0;;;10.9;89.3
50166;BME280;36071;48.140;11.516;2023-05-16T06:53:57;95110.0;;;11.1;88.9
50166;BME280;36071;48.140;11.516;2023-05-16T06:58:57;95110.0;;;11.1;87.9
50166;BME280;36071;48.140;11.516;2023-05-16T07:03:57;95110.0;;;11.2;88.0
50166;BME280;36071;48.140;11.516;2023-05-16T07:08:57;95110.0;;;11.3;87.6
50166;BME280;36071;48.140;11.516;2023-05-16T07:13:57;95100.0;;;11.3;86.9
50166;BME280;36071;48.140;11.516;2023-05-16T07:18:57;95100.0;;;11.4;86.6
50166;BME280;36071;48.140;11.516;2023-05-16T07:23:57;95100.0;;;11.5;87.0
50166;BME280;36071;48.140;11.516;2023-05-16T07:28:57;95100.0;;;11.4;86.4
50166;BME280;36071;48.140;11.516;2023-05-16T07:33:57;95100.0;;;11.5;86.4
50166;BME280;36071;48.140;11.516;2023-05-16T07:38:57;95110.0;;;11.4;86.2
50166;BME280;36071;48.140;11.516;2023-05-16T07:43:57;95110.0;;;11.4;86.5
50166;BME280;36071;48.140;11.516;2023-05-16T07:48:57;95110.0;;;11.3;87.1
50166;BME280;36071;48.140;11.516;2023-05-16T07:53:57;95140.0;;;11.2;88.2
50166;BME280;36071;48.140;11.516;2023-05-16T07:58:58;95140.0;;;11.2;90.5
50166;BME280;36071;48.140;11.516;2023-05-16T08:03:57;95140.0;;;11.2;91.4
50166;BME280;36071;48.140;11.516;2023-05-16T08:08:57;95140.0;;;11.2;92.4
50166;BME280;36071;48.140;11.516;2023-05-16T08:13:57;95150.0;;;11.3;93.8
50166;BME280;36071;48.140;11.516;2023-05-16T08:18:57;95150.0;;;11.2;94.7
50166;BME280;36071;48.140;11.516;2023-05-16T08:23:57;95150.0;;;11.2;96.0
50166;BME280;36071;48.140;11.516;2023-05-16T08:28:57;95150.0;;;11.2;95.6
50166;BME280;36071;48.140;11.516;2023-05-16T08:33:57;95150.0;;;11.2;96.3
50166;BME280;36071;48.140;11.516;2023-05-16T08:38:57;95150.0;;;11.2;95.2
50166;BME280;36071;48.140;11.516;2023-05-16T08:43:57;95150.0;;;11.3;97.6
50166;BME280;36071;48.140;11.516;2023-05-16T08:48:58;95150.0;;;11.3;97.0
50166;BME280;36071;48.140;11.516;2023-05-16T08:53:58;95160.0;;;11.4;97.2
50166;BME280;36071;48.140;11.516;2023-05-16T08:58:57;95150.0;;;11.4;95.9
50166;BME280;36071;48.140;11.516;2023-05-16T09:03:57;95150.0;;;11.5;95.8
50166;BME280;36071;48.140;11.516;2023-05-16T09:08:57;95140.0;;;11.6;96.4
50166;BME280;36071;48.140;11.516;2023-05-16T09:13:57;95130.0;;;11.8;95.3
50166;BME280;36071;48.140;11.516;2023-05-16T09:28:57;95130.0;;;11.8;92.1
50166;BME280;36071;48.140;11.516;2023-05-16T09:33:57;95120.0;;;12.0;93.7
50166;BME280;36071;48.140;11.516;2023-05-16T09:38:57;95120.0;;;12.1;94.2
50166;BME280;36071;48.140;11.516;2023-05-16T09:43:57;95130.0;;;12.2;93.4
50166;BME280;36071;48.140;11.516;2023-05-16T09:48:57;95120.0;;;12.2;94.4
50166;BME280;36071;48.140;11.516;2023-05-16T09:53:57;95130.0;;;12.2;95.0
50166;BME280;36071;48.140;11.516;2023-05-16T09:58:58;95130.0;;;12.2;96.7
50166;BME280;36071;48.140;11.516;2023-05-16T10:03:57;95130.0;;;12.3;96.5
50166;BME280;36071;48.140;11.516;2023-05-16T10:08:57;95140.0;;;12.2;94.2
50166;BME280;36071;48.140;11.516;2023-05-16T10:13:57;95140.0;;;12.2;96.8
50166;BME280;36071;48.140;11.516;2023-05-16T10:18:57;95140.0;;;12.3;93.8
50166;BME280;36071;48.140;11.516;2023-05-16T10:23:58;95150.0;;;12.3;93.8
50166;BME280;36071;48.140;11.516;2023-05-16T10:28:58;95140.0;;;12.3;94.5
50166;BME280;36071;48.140;11.516;2023-05-16T10:33:57;95150.0;;;12.3;93.4
50166;BME280;36071;48.140;11.516;2023-05-16T10:38:57;95150.0;;;12.3;94.4
50166;BME280;36071;48.140;11.516;2023-05-16T10:43:58;95160.0;;;12.1;95.2
50166;BME280;36071;48.140;11.516;2023-05-16T10:48:57;95160.0;;;12.0;96.6
50166;BME280;36071;48.140;11.516;2023-05-16T10:54:03;95170.0;;;12.0;98.5
50166;BME280;36071;48.140;11.516;2023-05-16T10:58:57;95160.0;;;12.1;98.8
50166;BME280;36071;48.140;11.516;2023-05-16T11:03:59;95150.0;;;12.0;100.0
50166;BME280;36071;48.140;11.516;2023-05-16T11:13:57;95150.0;;;12.1;100.0
50166;BME280;36071;48.140;11.516;2023-05-16T11:19:03;95160.0;;;12.0;100.0
50166;BME280;36071;48.140;11.516;2023-05-16T11:24:26;95170.0;;;11.9;100.0
50166;BME280;36071;48.140;11.516;2023-05-16T11:28:57;95170.0;;;11.7;96.6
50166;BME280;36071;48.140;11.516;2023-05-16T11:33:57;95160.0;;;11.5;94.4
50166;BME280;36071;48.140;11.516;2023-05-16T11:39:04;95150.0;;;11.3;93.6
50166;BME280;36071;48.140;11.516;2023-05-16T11:43:57;95150.0;;;11.4;98.4
50166;BME280;36071;48.140;11.516;2023-05-16T11:48:57;95140.0;;;11.6;100.0
50166;BME280;36071;48.140;11.516;2023-05-16T11:53:57;95150.0;;;11.7;100.0
50166;BME280;36071;48.140;11.516;2023-05-16T11:58:58;95150.0;;;11.8;100.0
50166;BME280;36071;48.140;11.516;2023-05-16T12:03:57;95140.0;;;12.0;100.0
50166;BME280;36071;48.140;11.516;2023-05-16T12:08:57;95130.0;;;12.2;100.0
50166;BME280;36071;48.140;11.516;2023-05-16T12:13:57;95140.0;;;12.3;100.0
50166;BME280;36071;48.140;11.516;2023-05-16T12:18:57;95140.0;;;12.4;100.0
50166;BME280;36071;48.140;11.516;2023-05-16T12:23:57;95130.0;;;12.5;100.0
50166;BME280;36071;48.140;11.516;2023-05-16T12:28:57;95140.0;;;12.7;100.0
50166;BME280;36071;48.140;11.516;2023-05-16T12:33:57;95130.0;;;12.8;99.0
50166;BME280;36071;48.140;11.516;2023-05-16T12:38:58;95130.0;;;13.0;95.7
50166;BME280;36071;48.140;11.516;2023-05-16T12:44:05;95130.0;;;13.2;96.8
50166;BME280;36071;48.140;11.516;2023-05-16T12:49:00;95120.0;;;13.2;96.3
50166;BME280;36071;48.140;11.516;2023-05-16T12:54:05;95120.0;;;13.4;97.0
50166;BME280;36071;48.140;11.516;2023-05-16T12:58:59;95120.0;;;13.4;94.4
50166;BME280;36071;48.140;11.516;2023-05-16T13:03:57;95120.0;;;13.5;97.3
50166;BME280;36071;48.140;11.516;2023-05-16T13:08:58;95110.0;;;13.6;97.4
50166;BME280;36071;48.140;11.516;2023-05-16T13:18:57;95120.0;;;13.8;96.9
50166;BME280;36071;48.140;11.516;2023-05-16T13:23:57;95110.0;;;13.7;97.6
50166;BME280;36071;48.140;11.516;2023-05-16T13:28:57;95130.0;;;13.6;98.3
50166;BME280;36071;48.140;11.516;2023-05-16T13:33:57;95130.0;;;13.3;92.3
50166;BME280;36071;48.140;11.516;2023-05-16T13:38:57;95120.0;;;13.0;91.8
50166;BME280;36071;48.140;11.516;2023-05-16T13:43:57;95130.0;;;12.9;94.1
50166;BME280;36071;48.140;11.516;2023-05-16T13:48:57;95150.0;;;12.8;94.8
50166;BME280;36071;48.140;11.516;2023-05-16T13:53:57;95160.0;;;12.6;95.5
50166;BME280;36071;48.140;11.516;2023-05-16T13:58:57;95150.0;;;12.4;96.4
50166;BME280;36071;48.140;11.516;2023-05-16T14:03:57;95150.0;;;12.5;96.3
50166;BME280;36071;48.140;11.516;2023-05-16T14:08:57;95150.0;;;12.5;95.6
50166;BME280;36071;48.140;11.516;2023-05-16T14:13:57;95140.0;;;12.4;95.3
50166;BME280;36071;48.140;11.516;2023-05-16T14:18:57;95150.0;;;12.4;94.2
50166;BME280;36071;48.140;11.516;2023-05-16T14:23:57;95160.0;;;12.3;95.1
50166;BME280;36071;48.140;11.516;2023-05-16T14:28:57;95160.0;;;12.2;94.8
50166;BME280;36071;48.140;11.516;2023-05-16T14:33:57;95150.0;;;12.1;94.5
50166;BME280;36071;48.140;11.516;2023-05-16T14:38:57;95160.0;;;12.1;94.5
50166;BME280;36071;48.140;11.516;2023-05-16T14:43:57;95190.0;;;12.1;96.5
50166;BME280;36071;48.140;11.516;2023-05-16T14:48:57;95190.0;;;12.1;96.9
50166;BME280;36071;48.140;11.516;2023-05-16T14:53:57;95200.0;;;12.0;97.3
50166;BME280;36071;48.140;11.516;2023-05-16T14:58:59;95200.0;;;12.1;96.8
50166;BME280;36071;48.140;11.516;2023-05-16T15:03:57;95210.0;;;12.1;98.2
50166;BME280;36071;48.140;11.516;2023-05-16T15:08:57;95220.0;;;12.0;99.7
50166;BME280;36071;48.140;11.516;2023-05-16T15:13:57;95220.0;;;12.1;100.0
50166;BME280;36071;48.140;11.516;2023-05-16T15:23:57;95220.0;;;12.1;98.5
50166;BME280;36071;48.140;11.516;2023-05-16T15:29:15;95220.0;;;12.1;100.0
50166;BME280;36071;48.140;11.516;2023-05-16T15:33:57;95230.0;;;12.0;99.6
50166;BME280;36071;48.140;11.516;2023-05-16T15:38:57;95230.0;;;12.0;98.4
50166;BME280;36071;48.140;11.516;2023-05-16T15:43:58;95240.0;;;12.0;100.0
50166;BME280;36071;48.140;11.516;2023-05-16T15:53:58;95240.0;;;12.1;100.0
50166;BME280;36071;48.140;11.516;2023-05-16T16:03:57;95240.0;;;12.0;100.0
50166;BME280;36071;48.140;11.516;2023-05-16T16:23:57;95250.0;;;12.0;100.0
50166;BME280;36071;48.140;11.516;2023-05-16T16:28:58;95260.0;;;11.9;100.0
50166;BME280;36071;48.140;11.516;2023-05-16T16:33:57;95250.0;;;11.9;100.0
50166;BME280;36071;48.140;11.516;2023-05-16T16:39:00;95260.0;;;11.9;100.0
50166;BME280;36071;48.140;11.516;2023-05-16T16:43:58;95270.0;;;11.9;100.0
50166;BME280;36071;48.140;11.516;2023-05-16T16:48:57;95270.0;;;11.8;100.0
50166;BME280;36071;48.140;11.516;2023-05-16T16:53:57;95280.0;;;11.9;100.0
50166;BME280;36071;48.140;11.516;2023-05-16T16:58:58;95270.0;;;11.8;100.0
50166;BME280;36071;48.140;11.516;2023-05-16T17:03:57;95290.0;;;11.8;100.0
50166;BME280;36071;48.140;11.516;2023-05-16T17:13:57;95300.0;;;11.8;100.0
50166;BME280;36071;48.140;11.516;2023-05-16T17:18:57;95300.0;;;11.7;100.0
50166;BME280;36071;48.140;11.516;2023-05-16T17:23:57;95300.0;;;11.8;100.0
50166;BME280;36071;48.140;11.516;2023-05-16T17:33:57;95290.0;;;11.8;100.0
50166;BME280;36071;48.140;11.516;2023-05-16T17:38:57;95300.0;;;11.8;100.0
50166;BME280;36071;48.140;11.516;2023-05-16T17:43:57;95290.0;;;11.7;100.0
50166;BME280;36071;48.140;11.516;2023-05-16T17:48:57;95300.0;;;11.7;100.0
50166;BME280;36071;48.140;11.516;2023-05-16T17:58:58;95310.0;;;11.7;100.0
50166;BME280;36071;48.140;11.516;2023-05-16T18:03:57;95310.0;;;11.8;100.0
50166;BME280;36071;48.140;11.516;2023-05-16T18:08:57;95310.0;;;11.7;100.0
50166;BME280;36071;48.140;11.516;2023-05-16T18:18:57;95320.0;;;11.6;100.0
50166;BME280;36071;48.140;11.516;2023-05-16T18:28:57;95330.0;;;11.6;100.0
50166;BME280;36071;48.140;11.516;2023-05-16T18:33:58;95320.0;;;11.6;100.0
50166;BME280;36071;48.140;11.516;2023-05-16T18:38:57;95330.0;;;11.5;100.0
50166;BME280;36071;48.140;11.516;2023-05-16T18:43:57;95340.0;;;11.6;100.0
50166;BME280;36071;48.140;11.516;2023-05-16T18:48:58;95360.0;;;11.5;100.0
50166;BME280;36071;48.140;11.516;2023-05-16T18:53:57;95370.0;;;11.3;100.0
50166;BME280;36071;48.140;11.516;2023-05-16T18:58:57;95380.0;;;11.3;100.0
50166;BME280;36071;48.140;11.516;2023-05-16T19:03:57;95380.0;;;11.2;99.6
50166;BME280;36071;48.140;11.516;2023-05-16T19:08:57;95380.0;;;11.1;99.4
50166;BME280;36071;48.140;11.516;2023-05-16T19:13:57;95390.0;;;11.1;99.0
50166;BME280;36071;48.140;11.516;2023-05-16T19:18:58;95390.0;;;11.0;99.3
50166;BME280;36071;48.140;11.516;2023-05-16T19:23:57;95400.0;;;11.0;100.0
50166;BME280;36071;48.140;11.516;2023-05-16T19:28:57;95410.0;;;11.0;99.7
50166;BME280;36071;48.140;11.516;2023-05-16T19:33:58;95420.0;;;10.9;99.1
50166;BME280;36071;48.140;11.516;2023-05-16T19:38:58;95440.0;;;11.0;97.4
50166;BME280;36071;48.140;11.516;2023-05-16T19:43:57;95440.0;;;10.9;95.9
50166;BME280;36071;48.140;11.516;2023-05-16T19:48:58;95440.0;;;10.9;96.0
50166;BME280;36071;48.140;11.516;2023-05-16T19:53:57;95440.0;;;10.8;96.3
50166;BME280;36071;48.140;11.516;2023-05-16T19:58:57;95450.0;;;10.8;97.1
50166;BME280;36071;48.140;11.516;2023-05-16T20:03:57;95450.0;;;10.8;95.4
50166;BME280;36071;48.140;11.516;2023-05-16T20:08:57;95460.0;;;10.8;94.3
50166;BME280;36071;48.140;11.516;2023-05-16T20:13:57;95460.0;;;10.7;95.3
50166;BME280;36071;48.140;11.516;2023-05-16T20:18:59;95470.0;;;10.7;94.1
50166;BME280;36071;48.140;11.516;2023-05-16T20:23:57;95460.0;;;10.6;93.2
50166;BME280;36071;48.140;11.516;2023-05-16T20:28:57;95470.0;;;10.6;93.4
50166;BME280;36071;48.140;11.516;2023-05-16T20:33:57;95470.0;;;10.5;94.7
50166;BME280;36071;48.140;11.516;2023-05-16T20:38:59;95470.0;;;10.5;94.9
50166;BME280;36071;48.140;11.516;2023-05-16T20:43:57;95480.0;;;10.5;93.7
50166;BME280;36071;48.140;11.516;2023-05-16T20:48:57;95480.0;;;10.4;94.2
50166;BME280;36071;48.140;11.516;2023-05-16T20:58:58;95480.0;;;10.4;93.4
50166;BME280;36071;48.140;11.516;2023-05-16T21:03:57;95490.0;;;10.2;93.6
50166;BME280;36071;48.140;11.516;2023-05-16T21:08:57;95490.0;;;10.2;92.6
50166;BME280;36071;48.140;11.516;2023-05-16T21:13:58;95490.0;;;10.2;92.3
50166;BME280;36071;48.140;11.516;2023-05-16T21:18:57;95490.0;;;10.2;92.4
50166;BME280;36071;48.140;11.516;2023-05-16T21:23:57;95490.0;;;10.1;93.8
50166;BME280;36071;48.140;11.516;2023-05-16T21:28:58;95500.0;;;10.1;91.1
50166;BME280;36071;48.140;11.516;2023-05-16T21:33:57;95510.0;;;10.0;90.3
50166;BME280;36071;48.140;11.516;2023-05-16T21:38:57;95520.0;;;10.0;90.4
50166;BME280;36071;48.140;11.516;2023-05-16T21:43:57;95530.0;;;10.1;91.0
50166;BME280;36071;48.140;11.516;2023-05-16T21:48:58;95530.0;;;10.0;90.3
50166;BME280;36071;48.140;11.516;2023-05-16T21:53:57;95540.0;;;9.9;89.7
50166;BME280;36071;48.140;11.516;2023-05-16T21:58:58;95550.0;;;9.9;89.2
50166;BME280;36071;48.140;11.516;2023-05-16T22:03:57;95560.0;;;9.8;88.8
50166;BME280;36071;48.140;11.516;2023-05-16T22:08:57;95550.0;;;9.8;89.3
50166;BME280;36071;48.140;11.516;2023-05-16T22:13:58;95550.0;;;9.8;87.1
50166;BME280;36071;48.140;11.516;2023-05-16T22:18:57;95560.0;;;9.8;86.6
50166;BME280;36071;48.140;11.516;2023-05-16T22:23:57;95560.0;;;9.7;87.3
50166;BME280;36071;48.140;11.516;2023-05-16T22:28:58;95570.0;;;9.6;86.5
50166;BME280;36071;48.140;11.516;2023-05-16T22:33:57;95570.0;;;9.7;86.0
50166;BME280;36071;48.140;11.516;2023-05-16T22:38:57;95570.0;;;9.7;85.5
50166;BME280;36071;48.140;11.516;2023-05-16T22:43:58;95570.0;;;9.6;84.5
50166;BME280;36071;48.140;11.516;2023-05-16T22:48:57;95570.0;;;9.5;83.3
50166;BME280;36071;48.140;11.516;2023-05-16T22:53:57;95570.0;;;9.6;83.3
50166;BME280;36071;48.140;11.516;2023-05-16T22:58:58;95570.0;;;9.5;81.2
50166;BME280;36071;48.140;11.516;2023-05-16T23:03:57;95590.0;;;9.5;82.1
50166;BME280;36071;48.140;11.516;2023-05-16T23:08:57;95590.0;;;9.5;81.4
50166;BME280;36071;48.140;11.516;2023-05-16T23:13:57;95580.0;;;9.4;82.1
50166;BME280;36071;48.140;11.516;2023-05-16T23:18:57;95590.0;;;9.4;80.7
50166;BME280;36071;48.140;11.516;2023-05-16T23:23:57;95580.0;;;9.4;79.7
50166;BME280;36071;48.140;11.516;2023-05-16T23:28:57;95590.0;;;9.3;80.4
50166;BME280;36071;48.140;11.516;2023-05-16T23:33:57;95600.0;;;9.4;81.1
50166;BME280;36071;48.140;11.516;2023-05-16T23:38:57;95600.0;;;9.3;80.1
50166;BME280;36071;48.140;11.516;2023-05-16T23:43:58;95600.0;;;9.3;78.5
50166;BME280;36071;48.140;11.516;2023-05-16T23:48:57;95600.0;;;9.2;79.9
50166;BME280;36071;48.140;11.516;2023-05-16T23:53:57;95620.0;;;9.2;79.2
50166;BME280;36071;48.140;11.516;2023-05-16T23:58:59;95620.0;;;9.2;79.0
